sensor_id;sensor_type;location;lat;lon;timestamp;pressure;altitude;pressure_sealevel;temperature;humidity
55604;BME280;41468;48.838;9.330;2022-09-01T00:00:17;98530.38;;;17.18;84.27
55604;BME280;41468;48.838;9.330;2022-09-01T00:02:49;98531.59;;;17.17;84.00
55604;BME280;41468;48.838;9.330;2022-09-01T00:05:21;98539.13;;;17.13;84.62
55604;BME280;41468;48.838;9.330;2022-09-01T00:07:51;98537.91;;;17.17;84.46
55604;BME280;41468;48.838;9.330;2022-09-01T00:10:21;98536.00;;;17.10;84.25
55604;BME280;41468;48.838;9.330;2022-09-01T00:12:51;98538.41;;;17.08;84.29
55604;BME280;41468;48.838;9.330;2022-09-01T00:15:21;98541.50;;;17.10;84.23
55604;BME280;41468;48.838;9.330;2022-09-01T00:17:50;98534.56;;;16.99;84.81
55604;BME280;41468;48.838;9.330;2022-09-01T00:20:23;98538.03;;;17.06;84.49
55604;BME280;41468;48.838;9.330;2022-09-01T00:22:52;98545.22;;;16.97;84.60
55604;BME280;41468;48.838;9.330;2022-09-01T00:25:22;98536.22;;;16.93;85.50
55604;BME280;41468;48.838;9.330;2022-09-01T00:27:54;98542.56;;;16.90;85.06
55604;BME280;41468;48.838;9.330;2022-09-01T00:30:26;98542.56;;;16.90;84.66
55604;BME280;41468;48.838;9.330;2022-09-01T00:32:55;98539.31;;;16.98;84.46
55604;BME280;41468;48.838;9.330;2022-09-01T00:35:27;98540.47;;;16.97;84.30
55604;BME280;41468;48.838;9.330;2022-09-01T00:38:02;98538.66;;;16.87;84.39
55604;BME280;41468;48.838;9.330;2022-09-01T00:40:32;98535.44;;;16.92;84.42
55604;BME280;41468;48.838;9.330;2022-09-01T00:43:10;98542.22;;;16.84;84.38
55604;BME280;41468;48.838;9.330;2022-09-01T00:45:40;98535.06;;;16.90;83.88
55604;BME280;41468;48.838;9.330;2022-09-01T00:48:10;98534.75;;;16.81;84.15
55604;BME280;41468;48.838;9.330;2022-09-01T00:50:43;98529.22;;;16.81;84.13
55604;BME280;41468;48.838;9.330;2022-09-01T00:53:19;98533.22;;;16.73;84.20
55604;BME280;41468;48.838;9.330;2022-09-01T00:55:49;98525.31;;;16.75;84.13
55604;BME280;41468;48.838;9.330;2022-09-01T00:58:19;98527.75;;;16.69;84.03
55604;BME280;41468;48.838;9.330;2022-09-01T01:00:51;98523.81;;;16.66;83.72
55604;BME280;41468;48.838;9.330;2022-09-01T01:03:21;98530.88;;;16.71;83.60
55604;BME280;41468;48.838;9.330;2022-09-01T01:05:56;98527.78;;;16.65;83.89
55604;BME280;41468;48.838;9.330;2022-09-01T01:08:29;98518.69;;;16.69;83.54
55604;BME280;41468;48.838;9.330;2022-09-01T01:11:00;98525.84;;;16.62;83.60
55604;BME280;41468;48.838;9.330;2022-09-01T01:13:47;98521.56;;;16.54;83.83
55604;BME280;41468;48.838;9.330;2022-09-01T01:16:17;98524.03;;;16.45;84.35
55604;BME280;41468;48.838;9.330;2022-09-01T01:18:47;98529.06;;;16.54;84.02
55604;BME280;41468;48.838;9.330;2022-09-01T01:21:22;98530.53;;;16.65;83.10
55604;BME280;41468;48.838;9.330;2022-09-01T01:24:19;98515.59;;;16.59;83.39
55604;BME280;41468;48.838;9.330;2022-09-01T01:26:50;98520.94;;;16.39;83.92
55604;BME280;41468;48.838;9.330;2022-09-01T01:29:20;98529.94;;;16.47;83.81
55604;BME280;41468;48.838;9.330;2022-09-01T01:31:52;98525.59;;;16.46;83.58
55604;BME280;41468;48.838;9.330;2022-09-01T01:34:21;98520.81;;;16.50;83.21
55604;BME280;41468;48.838;9.330;2022-09-01T01:36:51;98524.88;;;16.38;83.70
55604;BME280;41468;48.838;9.330;2022-09-01T01:39:30;98526.00;;;16.44;83.84
55604;BME280;41468;48.838;9.330;2022-09-01T01:41:59;98522.81;;;16.46;83.65
55604;BME280;41468;48.838;9.330;2022-09-01T01:44:29;98532.78;;;16.36;83.74
55604;BME280;41468;48.838;9.330;2022-09-01T01:46:59;98536.19;;;16.06;84.96
55604;BME280;41468;48.838;9.330;2022-09-01T01:49:34;98540.03;;;16.16;84.56
55604;BME280;41468;48.838;9.330;2022-09-01T01:52:07;98531.31;;;16.21;84.40
55604;BME280;41468;48.838;9.330;2022-09-01T01:54:40;98541.25;;;16.11;84.93
55604;BME280;41468;48.838;9.330;2022-09-01T01:57:12;98535.25;;;16.23;84.57
55604;BME280;41468;48.838;9.330;2022-09-01T01:59:44;98536.88;;;16.17;84.37
55604;BME280;41468;48.838;9.330;2022-09-01T02:02:13;98528.94;;;16.23;84.50
55604;BME280;41468;48.838;9.330;2022-09-01T02:04:44;98539.47;;;16.35;84.26
55604;BME280;41468;48.838;9.330;2022-09-01T02:07:13;98536.75;;;16.32;84.38
55604;BME280;41468;48.838;9.330;2022-09-01T02:09:46;98547.84;;;16.25;84.91
55604;BME280;41468;48.838;9.330;2022-09-01T02:12:16;98533.59;;;16.33;84.73
55604;BME280;41468;48.838;9.330;2022-09-01T02:14:46;98530.50;;;16.28;84.65
55604;BME280;41468;48.838;9.330;2022-09-01T02:17:18;98532.06;;;16.29;85.11
55604;BME280;41468;48.838;9.330;2022-09-01T02:19:47;98529.00;;;16.16;85.86
55604;BME280;41468;48.838;9.330;2022-09-01T02:22:21;98519.47;;;16.24;85.25
55604;BME280;41468;48.838;9.330;2022-09-01T02:24:54;98523.38;;;16.27;85.01
55604;BME280;41468;48.838;9.330;2022-09-01T02:27:23;98529.69;;;16.31;84.81
55604;BME280;41468;48.838;9.330;2022-09-01T02:29:55;98521.00;;;16.29;84.75
55604;BME280;41468;48.838;9.330;2022-09-01T02:32:24;98528.16;;;16.22;85.29
55604;BME280;41468;48.838;9.330;2022-09-01T02:34:54;98535.28;;;16.20;85.08
55604;BME280;41468;48.838;9.330;2022-09-01T02:37:27;98531.75;;;16.19;85.17
55604;BME280;41468;48.838;9.330;2022-09-01T02:39:59;98524.97;;;16.28;84.86
55604;BME280;41468;48.838;9.330;2022-09-01T02:42:29;98524.13;;;16.34;84.51
55604;BME280;41468;48.838;9.330;2022-09-01T02:44:58;98530.81;;;16.37;83.93
55604;BME280;41468;48.838;9.330;2022-09-01T02:47:29;98524.22;;;16.23;84.73
55604;BME280;41468;48.838;9.330;2022-09-01T02:49:59;98532.19;;;16.11;85.38
55604;BME280;41468;48.838;9.330;2022-09-01T02:52:29;98526.41;;;15.98;85.73
55604;BME280;41468;48.838;9.330;2022-09-01T02:55:06;98533.56;;;15.85;86.61
55604;BME280;41468;48.838;9.330;2022-09-01T02:57:37;98524.50;;;15.88;86.62
55604;BME280;41468;48.838;9.330;2022-09-01T03:00:09;98523.75;;;15.73;87.62
55604;BME280;41468;48.838;9.330;2022-09-01T03:02:48;98523.34;;;15.82;87.18
55604;BME280;41468;48.838;9.330;2022-09-01T03:05:20;98522.81;;;15.97;85.87
55604;BME280;41468;48.838;9.330;2022-09-01T03:07:54;98529.88;;;16.06;85.50
55604;BME280;41468;48.838;9.330;2022-09-01T03:10:32;98524.03;;;15.96;85.35
55604;BME280;41468;48.838;9.330;2022-09-01T03:13:03;98533.03;;;16.00;85.03
55604;BME280;41468;48.838;9.330;2022-09-01T03:15:34;98531.53;;;15.92;84.99
55604;BME280;41468;48.838;9.330;2022-09-01T03:18:06;98522.09;;;15.90;85.16
55604;BME280;41468;48.838;9.330;2022-09-01T03:20:38;98524.06;;;15.93;84.86
55604;BME280;41468;48.838;9.330;2022-09-01T03:23:10;98525.31;;;15.81;85.19
55604;BME280;41468;48.838;9.330;2022-09-01T03:25:47;98528.50;;;15.72;85.51
55604;BME280;41468;48.838;9.330;2022-09-01T03:28:17;98532.09;;;15.66;85.81
55604;BME280;41468;48.838;9.330;2022-09-01T03:30:49;98523.00;;;15.69;85.78
55604;BME280;41468;48.838;9.330;2022-09-01T03:33:21;98526.13;;;15.74;85.18
55604;BME280;41468;48.838;9.330;2022-09-01T03:35:51;98519.84;;;15.70;85.18
55604;BME280;41468;48.838;9.330;2022-09-01T03:38:22;98524.53;;;15.73;85.00
55604;BME280;41468;48.838;9.330;2022-09-01T03:40:58;98531.28;;;15.69;84.79
55604;BME280;41468;48.838;9.330;2022-09-01T03:43:29;98520.22;;;15.80;83.93
55604;BME280;41468;48.838;9.330;2022-09-01T03:46:02;98514.31;;;15.70;84.02
55604;BME280;41468;48.838;9.330;2022-09-01T03:48:32;98520.25;;;15.65;84.10
55604;BME280;41468;48.838;9.330;2022-09-01T03:51:02;98525.34;;;15.70;83.71
55604;BME280;41468;48.838;9.330;2022-09-01T03:53:33;98526.50;;;15.80;83.54
55604;BME280;41468;48.838;9.330;2022-09-01T03:56:07;98526.91;;;15.82;83.40
55604;BME280;41468;48.838;9.330;2022-09-01T03:58:37;98525.69;;;15.76;84.83
55604;BME280;41468;48.838;9.330;2022-09-01T04:01:08;98523.75;;;15.76;85.13
55604;BME280;41468;48.838;9.330;2022-09-01T04:03:39;98532.03;;;15.73;84.96
55604;BME280;41468;48.838;9.330;2022-09-01T04:06:15;98526.91;;;15.78;84.75
55604;BME280;41468;48.838;9.330;2022-09-01T04:08:47;98525.75;;;15.65;84.86
55604;BME280;41468;48.838;9.330;2022-09-01T04:11:21;98540.72;;;15.68;84.71
55604;BME280;41468;48.838;9.330;2022-09-01T04:13:52;98524.59;;;15.66;84.48
55604;BME280;41468;48.838;9.330;2022-09-01T04:16:24;98534.03;;;15.65;84.30
55604;BME280;41468;48.838;9.330;2022-09-01T04:19:06;98538.38;;;15.66;83.86
55604;BME280;41468;48.838;9.330;2022-09-01T04:21:47;98528.97;;;15.56;84.17
55604;BME280;41468;48.838;9.330;2022-09-01T04:24:17;98531.34;;;15.58;84.00
55604;BME280;41468;48.838;9.330;2022-09-01T04:26:54;98531.72;;;15.56;84.16
55604;BME280;41468;48.838;9.330;2022-09-01T04:29:25;98524.69;;;15.48;84.21
55604;BME280;41468;48.838;9.330;2022-09-01T04:31:57;98529.81;;;15.50;83.89
55604;BME280;41468;48.838;9.330;2022-09-01T04:34:28;98527.84;;;15.47;84.31
55604;BME280;41468;48.838;9.330;2022-09-01T04:37:07;98532.94;;;15.55;83.80
55604;BME280;41468;48.838;9.330;2022-09-01T04:39:38;98538.03;;;15.57;83.45
55604;BME280;41468;48.838;9.330;2022-09-01T04:42:25;98534.47;;;15.60;83.48
55604;BME280;41468;48.838;9.330;2022-09-01T04:44:55;98534.53;;;15.53;83.92
55604;BME280;41468;48.838;9.330;2022-09-01T04:47:36;98536.16;;;15.36;84.47
55604;BME280;41468;48.838;9.330;2022-09-01T04:50:09;98537.31;;;15.46;83.95
55604;BME280;41468;48.838;9.330;2022-09-01T04:52:43;98533.78;;;15.42;83.95
55604;BME280;41468;48.838;9.330;2022-09-01T04:55:14;98540.47;;;15.44;83.98
55604;BME280;41468;48.838;9.330;2022-09-01T04:57:48;98532.59;;;15.43;83.48
55604;BME280;41468;48.838;9.330;2022-09-01T05:00:20;98531.41;;;15.47;83.88
55604;BME280;41468;48.838;9.330;2022-09-01T05:02:56;98530.56;;;15.54;83.41
55604;BME280;41468;48.838;9.330;2022-09-01T05:05:37;98544.31;;;15.61;84.01
55604;BME280;41468;48.838;9.330;2022-09-01T05:08:08;98541.63;;;15.43;84.74
55604;BME280;41468;48.838;9.330;2022-09-01T05:10:51;98543.66;;;15.32;86.16
55604;BME280;41468;48.838;9.330;2022-09-01T05:13:25;98547.19;;;15.32;86.47
55604;BME280;41468;48.838;9.330;2022-09-01T05:16:00;98545.19;;;15.44;86.23
55604;BME280;41468;48.838;9.330;2022-09-01T05:18:31;98547.19;;;15.40;86.62
55604;BME280;41468;48.838;9.330;2022-09-01T05:21:04;98539.69;;;15.40;86.24
55604;BME280;41468;48.838;9.330;2022-09-01T05:23:36;98545.59;;;15.39;86.41
55604;BME280;41468;48.838;9.330;2022-09-01T05:26:11;98539.63;;;15.51;86.19
55604;BME280;41468;48.838;9.330;2022-09-01T05:28:47;98538.84;;;15.47;86.54
55604;BME280;41468;48.838;9.330;2022-09-01T05:31:19;98543.56;;;15.53;87.58
55604;BME280;41468;48.838;9.330;2022-09-01T05:33:50;98540.38;;;15.59;86.98
55604;BME280;41468;48.838;9.330;2022-09-01T05:36:21;98541.06;;;15.73;86.53
55604;BME280;41468;48.838;9.330;2022-09-01T05:38:52;98537.91;;;15.86;85.82
55604;BME280;41468;48.838;9.330;2022-09-01T05:41:22;98538.34;;;15.77;85.92
55604;BME280;41468;48.838;9.330;2022-09-01T05:43:55;98545.81;;;15.76;86.48
55604;BME280;41468;48.838;9.330;2022-09-01T05:46:26;98537.19;;;15.67;87.12
55604;BME280;41468;48.838;9.330;2022-09-01T05:48:56;98551.31;;;15.76;87.09
55604;BME280;41468;48.838;9.330;2022-09-01T05:51:28;98545.47;;;15.60;87.66
55604;BME280;41468;48.838;9.330;2022-09-01T05:54:11;98538.31;;;15.73;87.64
55604;BME280;41468;48.838;9.330;2022-09-01T05:56:42;98544.59;;;15.85;87.54
55604;BME280;41468;48.838;9.330;2022-09-01T05:59:15;98543.06;;;15.76;88.32
55604;BME280;41468;48.838;9.330;2022-09-01T06:01:51;98537.84;;;15.93;87.58
55604;BME280;41468;48.838;9.330;2022-09-01T06:04:22;98536.19;;;16.03;87.09
55604;BME280;41468;48.838;9.330;2022-09-01T06:06:53;98535.84;;;15.97;87.76
55604;BME280;41468;48.838;9.330;2022-09-01T06:09:36;98532.66;;;16.02;87.49
55604;BME280;41468;48.838;9.330;2022-09-01T06:12:06;98534.28;;;15.96;87.94
55604;BME280;41468;48.838;9.330;2022-09-01T06:14:48;98531.53;;;15.96;88.05
55604;BME280;41468;48.838;9.330;2022-09-01T06:17:19;98533.84;;;16.01;88.51
55604;BME280;41468;48.838;9.330;2022-09-01T06:19:51;98526.59;;;16.21;86.90
55604;BME280;41468;48.838;9.330;2022-09-01T06:22:22;98525.75;;;16.28;86.19
55604;BME280;41468;48.838;9.330;2022-09-01T06:24:53;98528.16;;;16.22;86.68
55604;BME280;41468;48.838;9.330;2022-09-01T06:27:28;98524.47;;;16.40;86.21
55604;BME280;41468;48.838;9.330;2022-09-01T06:30:00;98531.91;;;16.47;85.46
55604;BME280;41468;48.838;9.330;2022-09-01T06:32:30;98532.59;;;16.54;85.61
55604;BME280;41468;48.838;9.330;2022-09-01T06:35:05;98530.84;;;16.75;84.77
55604;BME280;41468;48.838;9.330;2022-09-01T06:37:34;98530.91;;;17.09;82.97
55604;BME280;41468;48.838;9.330;2022-09-01T06:40:05;98526.63;;;17.35;81.43
55604;BME280;41468;48.838;9.330;2022-09-01T06:42:36;98532.69;;;17.53;80.58
55604;BME280;41468;48.838;9.330;2022-09-01T06:45:10;98530.53;;;17.68;79.85
55604;BME280;41468;48.838;9.330;2022-09-01T06:47:40;98528.13;;;17.70;80.26
55604;BME280;41468;48.838;9.330;2022-09-01T06:50:14;98530.31;;;17.86;79.98
55604;BME280;41468;48.838;9.330;2022-09-01T06:53:05;98525.91;;;18.16;78.43
55604;BME280;41468;48.838;9.330;2022-09-01T06:55:57;98525.59;;;18.34;77.76
55604;BME280;41468;48.838;9.330;2022-09-01T06:58:28;98534.31;;;18.32;78.31
55604;BME280;41468;48.838;9.330;2022-09-01T07:01:04;98541.13;;;18.51;76.43
55604;BME280;41468;48.838;9.330;2022-09-01T07:03:35;98543.00;;;18.81;76.44
55604;BME280;41468;48.838;9.330;2022-09-01T07:06:07;98546.94;;;19.24;74.95
55604;BME280;41468;48.838;9.330;2022-09-01T07:08:58;98548.47;;;19.25;74.22
55604;BME280;41468;48.838;9.330;2022-09-01T07:11:48;98542.94;;;19.45;75.37
55604;BME280;41468;48.838;9.330;2022-09-01T07:14:38;98539.88;;;19.59;75.24
55604;BME280;41468;48.838;9.330;2022-09-01T07:17:30;98542.53;;;19.83;73.64
55604;BME280;41468;48.838;9.330;2022-09-01T07:20:00;98544.47;;;20.02;71.77
55604;BME280;41468;48.838;9.330;2022-09-01T07:22:51;98552.03;;;20.18;73.04
55604;BME280;41468;48.838;9.330;2022-09-01T07:25:38;98548.81;;;20.36;71.07
55604;BME280;41468;48.838;9.330;2022-09-01T07:28:28;98557.44;;;20.58;70.06
55604;BME280;41468;48.838;9.330;2022-09-01T07:31:06;98548.38;;;20.70;67.59
55604;BME280;41468;48.838;9.330;2022-09-01T07:34:02;98552.69;;;20.88;67.78
55604;BME280;41468;48.838;9.330;2022-09-01T07:36:58;98551.09;;;20.57;68.34
55604;BME280;41468;48.838;9.330;2022-09-01T07:39:47;98550.38;;;20.53;68.32
55604;BME280;41468;48.838;9.330;2022-09-01T07:42:18;98555.16;;;20.53;68.15
55604;BME280;41468;48.838;9.330;2022-09-01T07:45:10;98555.16;;;20.69;67.21
55604;BME280;41468;48.838;9.330;2022-09-01T07:47:57;98557.59;;;20.51;66.79
55604;BME280;41468;48.838;9.330;2022-09-01T07:50:32;98563.31;;;20.44;67.46
55604;BME280;41468;48.838;9.330;2022-09-01T07:53:24;98569.97;;;20.30;68.13
55604;BME280;41468;48.838;9.330;2022-09-01T07:55:55;98572.59;;;20.21;69.21
55604;BME280;41468;48.838;9.330;2022-09-01T07:58:27;98578.22;;;20.17;69.68
55604;BME280;41468;48.838;9.330;2022-09-01T08:00:59;98576.75;;;20.12;69.09
55604;BME280;41468;48.838;9.330;2022-09-01T08:03:29;98577.53;;;20.13;69.34
55604;BME280;41468;48.838;9.330;2022-09-01T08:06:06;98574.34;;;20.14;68.04
55604;BME280;41468;48.838;9.330;2022-09-01T08:08:37;98573.34;;;19.68;69.64
55604;BME280;41468;48.838;9.330;2022-09-01T08:11:07;98570.88;;;19.74;69.81
55604;BME280;41468;48.838;9.330;2022-09-01T08:13:37;98573.72;;;20.07;70.42
55604;BME280;41468;48.838;9.330;2022-09-01T08:16:09;98578.53;;;20.39;67.94
55604;BME280;41468;48.838;9.330;2022-09-01T08:18:44;98582.56;;;20.34;68.87
55604;BME280;41468;48.838;9.330;2022-09-01T08:21:19;98575.66;;;20.43;68.83
55604;BME280;41468;48.838;9.330;2022-09-01T08:23:51;98589.28;;;20.53;68.60
55604;BME280;41468;48.838;9.330;2022-09-01T08:26:24;98586.50;;;20.53;67.17
55604;BME280;41468;48.838;9.330;2022-09-01T08:28:54;98583.72;;;20.37;67.59
55604;BME280;41468;48.838;9.330;2022-09-01T08:31:24;98582.72;;;20.27;69.02
55604;BME280;41468;48.838;9.330;2022-09-01T08:33:57;98580.03;;;20.07;68.22
55604;BME280;41468;48.838;9.330;2022-09-01T08:36:31;98580.31;;;20.13;68.74
55604;BME280;41468;48.838;9.330;2022-09-01T08:39:01;98580.22;;;20.33;68.86
55604;BME280;41468;48.838;9.330;2022-09-01T08:41:41;98578.69;;;20.65;66.05
55604;BME280;41468;48.838;9.330;2022-09-01T08:44:20;98585.88;;;20.62;66.42
55604;BME280;41468;48.838;9.330;2022-09-01T08:46:58;98575.22;;;20.60;64.84
55604;BME280;41468;48.838;9.330;2022-09-01T08:49:30;98578.56;;;20.35;64.11
55604;BME280;41468;48.838;9.330;2022-09-01T08:52:18;98581.19;;;20.26;62.63
55604;BME280;41468;48.838;9.330;2022-09-01T08:54:54;98589.75;;;19.99;63.60
55604;BME280;41468;48.838;9.330;2022-09-01T08:57:31;98595.91;;;19.90;64.33
55604;BME280;41468;48.838;9.330;2022-09-01T09:00:05;98589.22;;;19.88;63.81
55604;BME280;41468;48.838;9.330;2022-09-01T09:02:44;98590.50;;;19.83;64.58
55604;BME280;41468;48.838;9.330;2022-09-01T09:05:27;98592.41;;;19.86;66.26
55604;BME280;41468;48.838;9.330;2022-09-01T09:08:33;98596.47;;;19.82;65.92
55604;BME280;41468;48.838;9.330;2022-09-01T09:11:16;98588.81;;;19.69;65.54
55604;BME280;41468;48.838;9.330;2022-09-01T09:13:56;98596.50;;;19.62;66.80
55604;BME280;41468;48.838;9.330;2022-09-01T09:16:31;98603.09;;;19.68;65.72
55604;BME280;41468;48.838;9.330;2022-09-01T09:19:06;98599.00;;;19.56;64.90
55604;BME280;41468;48.838;9.330;2022-09-01T09:21:39;98595.97;;;19.47;64.57
55604;BME280;41468;48.838;9.330;2022-09-01T09:24:15;98595.75;;;19.38;65.66
55604;BME280;41468;48.838;9.330;2022-09-01T09:26:48;98595.97;;;19.47;65.06
55604;BME280;41468;48.838;9.330;2022-09-01T09:29:18;98590.78;;;19.49;65.35
55604;BME280;41468;48.838;9.330;2022-09-01T09:32:01;98593.81;;;19.58;65.36
55604;BME280;41468;48.838;9.330;2022-09-01T09:34:34;98596.03;;;19.83;65.11
55604;BME280;41468;48.838;9.330;2022-09-01T09:37:23;98588.16;;;19.98;63.78
55604;BME280;41468;48.838;9.330;2022-09-01T09:40:09;98592.53;;;20.15;63.76
55604;BME280;41468;48.838;9.330;2022-09-01T09:42:42;98583.84;;;20.13;63.39
55604;BME280;41468;48.838;9.330;2022-09-01T09:45:29;98597.22;;;20.18;63.06
55604;BME280;41468;48.838;9.330;2022-09-01T09:48:04;98597.13;;;20.22;62.12
55604;BME280;41468;48.838;9.330;2022-09-01T09:50:38;98582.50;;;20.38;62.68
55604;BME280;41468;48.838;9.330;2022-09-01T09:53:16;98587.03;;;20.48;63.37
55604;BME280;41468;48.838;9.330;2022-09-01T09:56:02;98583.56;;;20.44;61.98
55604;BME280;41468;48.838;9.330;2022-09-01T09:58:35;98577.66;;;20.58;61.90
55604;BME280;41468;48.838;9.330;2022-09-01T10:01:09;98586.50;;;20.70;62.43
55604;BME280;41468;48.838;9.330;2022-09-01T10:03:44;98579.09;;;20.79;59.59
55604;BME280;41468;48.838;9.330;2022-09-01T10:06:31;98563.47;;;20.69;61.04
55604;BME280;41468;48.838;9.330;2022-09-01T10:09:03;98569.78;;;20.86;61.24
55604;BME280;41468;48.838;9.330;2022-09-01T10:11:39;98566.88;;;21.06;60.33
55604;BME280;41468;48.838;9.330;2022-09-01T10:14:13;98574.28;;;20.96;59.54
55604;BME280;41468;48.838;9.330;2022-09-01T10:17:08;98573.69;;;20.89;59.73
55604;BME280;41468;48.838;9.330;2022-09-01T10:19:46;98568.94;;;20.73;59.67
55604;BME280;41468;48.838;9.330;2022-09-01T10:22:17;98581.72;;;20.70;61.56
55604;BME280;41468;48.838;9.330;2022-09-01T10:24:48;98576.94;;;20.71;61.44
55604;BME280;41468;48.838;9.330;2022-09-01T10:27:22;98574.88;;;20.58;61.21
55604;BME280;41468;48.838;9.330;2022-09-01T10:30:02;98583.09;;;20.62;60.95
55604;BME280;41468;48.838;9.330;2022-09-01T10:32:46;98567.63;;;20.77;60.46
55604;BME280;41468;48.838;9.330;2022-09-01T10:35:24;98570.63;;;20.99;60.43
55604;BME280;41468;48.838;9.330;2022-09-01T10:37:57;98568.81;;;21.38;59.74
55604;BME280;41468;48.838;9.330;2022-09-01T10:40:36;98568.19;;;21.60;59.89
55604;BME280;41468;48.838;9.330;2022-09-01T10:43:40;98569.06;;;21.69;57.20
55604;BME280;41468;48.838;9.330;2022-09-01T10:55:21;98564.75;;;21.81;56.94
55604;BME280;41468;48.838;9.330;2022-09-01T10:58:19;98563.88;;;21.84;57.84
55604;BME280;41468;48.838;9.330;2022-09-01T11:05:09;98551.44;;;21.47;58.49
55604;BME280;41468;48.838;9.330;2022-09-01T11:07:39;98546.56;;;21.64;58.35
55604;BME280;41468;48.838;9.330;2022-09-01T11:13:35;98541.75;;;23.23;55.50
55604;BME280;41468;48.838;9.330;2022-09-01T11:16:27;98546.22;;;23.21;52.64
55604;BME280;41468;48.838;9.330;2022-09-01T11:19:23;98544.88;;;22.56;54.83
55604;BME280;41468;48.838;9.330;2022-09-01T11:22:06;98550.22;;;22.50;54.62
55604;BME280;41468;48.838;9.330;2022-09-01T11:24:47;98540.88;;;22.44;55.65
55604;BME280;41468;48.838;9.330;2022-09-01T11:27:55;98536.47;;;22.81;54.96
55604;BME280;41468;48.838;9.330;2022-09-01T11:30:34;98529.72;;;23.36;53.02
55604;BME280;41468;48.838;9.330;2022-09-01T11:33:19;98537.72;;;23.46;50.97
55604;BME280;41468;48.838;9.330;2022-09-01T11:35:58;98538.81;;;23.27;50.74
55604;BME280;41468;48.838;9.330;2022-09-01T11:38:33;98534.88;;;23.15;52.09
55604;BME280;41468;48.838;9.330;2022-09-01T11:41:07;98529.59;;;23.17;51.68
55604;BME280;41468;48.838;9.330;2022-09-01T11:43:37;98517.47;;;23.33;52.02
55604;BME280;41468;48.838;9.330;2022-09-01T11:46:11;98517.09;;;23.75;51.60
55604;BME280;41468;48.838;9.330;2022-09-01T11:48:49;98524.19;;;24.07;50.07
55604;BME280;41468;48.838;9.330;2022-09-01T11:51:19;98516.50;;;24.30;49.35
55604;BME280;41468;48.838;9.330;2022-09-01T11:53:50;98526.03;;;24.60;48.54
55604;BME280;41468;48.838;9.330;2022-09-01T11:56:27;98519.34;;;24.57;49.06
55604;BME280;41468;48.838;9.330;2022-09-01T11:59:52;98509.47;;;24.07;48.66
55604;BME280;41468;48.838;9.330;2022-09-01T12:02:24;98513.66;;;24.11;48.44
55604;BME280;41468;48.838;9.330;2022-09-01T12:05:22;98505.34;;;23.80;48.90
55604;BME280;41468;48.838;9.330;2022-09-01T12:07:53;98506.97;;;24.09;48.48
55604;BME280;41468;48.838;9.330;2022-09-01T12:10:30;98496.31;;;24.17;48.46
55604;BME280;41468;48.838;9.330;2022-09-01T12:13:02;98503.63;;;24.23;48.57
55604;BME280;41468;48.838;9.330;2022-09-01T12:15:37;98503.78;;;24.29;48.09
55604;BME280;41468;48.838;9.330;2022-09-01T12:20:29;98500.88;;;24.60;46.88
55604;BME280;41468;48.838;9.330;2022-09-01T12:23:00;98502.13;;;24.00;49.19
55604;BME280;41468;48.838;9.330;2022-09-01T12:25:31;98505.56;;;24.04;48.75
55604;BME280;41468;48.838;9.330;2022-09-01T12:28:02;98498.72;;;24.05;46.96
55604;BME280;41468;48.838;9.330;2022-09-01T12:30:36;98504.13;;;24.31;47.45
55604;BME280;41468;48.838;9.330;2022-09-01T12:33:10;98496.81;;;24.52;48.26
55604;BME280;41468;48.838;9.330;2022-09-01T12:36:13;98494.81;;;24.52;47.49
55604;BME280;41468;48.838;9.330;2022-09-01T12:38:43;98500.97;;;24.20;48.94
55604;BME280;41468;48.838;9.330;2022-09-01T12:41:31;98498.50;;;24.22;49.08
55604;BME280;41468;48.838;9.330;2022-09-01T12:44:25;98501.19;;;24.71;49.03
55604;BME280;41468;48.838;9.330;2022-09-01T12:46:57;98491.53;;;24.82;47.12
55604;BME280;41468;48.838;9.330;2022-09-01T12:49:37;98498.25;;;24.84;46.78
55604;BME280;41468;48.838;9.330;2022-09-01T12:52:23;98491.69;;;24.32;46.52
55604;BME280;41468;48.838;9.330;2022-09-01T12:55:08;98490.75;;;24.35;47.64
55604;BME280;41468;48.838;9.330;2022-09-01T12:58:02;98486.88;;;24.23;47.01
55604;BME280;41468;48.838;9.330;2022-09-01T13:02:29;98486.53;;;24.30;48.53
55604;BME280;41468;48.838;9.330;2022-09-01T13:05:24;98489.69;;;24.60;47.63
55604;BME280;41468;48.838;9.330;2022-09-01T13:08:02;98487.63;;;24.33;48.23
55604;BME280;41468;48.838;9.330;2022-09-01T13:10:35;98491.56;;;24.45;47.28
55604;BME280;41468;48.838;9.330;2022-09-01T13:13:10;98503.81;;;23.88;46.81
55604;BME280;41468;48.838;9.330;2022-09-01T13:15:43;98501.13;;;23.76;46.97
55604;BME280;41468;48.838;9.330;2022-09-01T13:18:17;98492.97;;;23.59;47.00
55604;BME280;41468;48.838;9.330;2022-09-01T13:20:49;98492.34;;;23.55;47.50
55604;BME280;41468;48.838;9.330;2022-09-01T13:23:19;98486.50;;;23.40;47.20
55604;BME280;41468;48.838;9.330;2022-09-01T13:25:49;98484.69;;;23.46;46.34
55604;BME280;41468;48.838;9.330;2022-09-01T13:28:19;98478.13;;;23.40;46.06
55604;BME280;41468;48.838;9.330;2022-09-01T13:30:53;98476.13;;;23.41;47.46
55604;BME280;41468;48.838;9.330;2022-09-01T13:33:46;98473.66;;;23.43;46.52
55604;BME280;41468;48.838;9.330;2022-09-01T13:36:36;98468.78;;;23.56;47.65
55604;BME280;41468;48.838;9.330;2022-09-01T13:39:15;98475.38;;;23.81;47.75
55604;BME280;41468;48.838;9.330;2022-09-01T13:41:46;98470.22;;;23.70;46.77
55604;BME280;41468;48.838;9.330;2022-09-01T13:44:16;98474.88;;;23.42;47.99
55604;BME280;41468;48.838;9.330;2022-09-01T13:46:46;98474.81;;;23.55;48.62
55604;BME280;41468;48.838;9.330;2022-09-01T13:49:39;98474.56;;;23.71;47.94
55604;BME280;41468;48.838;9.330;2022-09-01T13:52:28;98459.81;;;23.61;48.07
55604;BME280;41468;48.838;9.330;2022-09-01T13:54:58;98472.16;;;23.51;47.59
55604;BME280;41468;48.838;9.330;2022-09-01T13:57:28;98457.56;;;23.47;47.97
55604;BME280;41468;48.838;9.330;2022-09-01T14:00:04;98470.84;;;23.74;47.79
55604;BME280;41468;48.838;9.330;2022-09-01T14:02:37;98460.00;;;23.67;48.77
55604;BME280;41468;48.838;9.330;2022-09-01T14:05:09;98462.03;;;23.76;48.09